createdAt,value
2019-02-27T00:00:14.868Z,0.00
2019-02-27T00:01:16.939Z,0.00
2019-02-27T00:02:14.822Z,0.00
2019-02-27T00:03:14.855Z,0.00
2019-02-27T00:04:14.801Z,0.00
2019-02-27T00:05:14.815Z,0.00
2019-02-27T00:06:15.860Z,0.00
2019-02-27T00:07:14.766Z,0.00
2019-02-27T00:08:14.756Z,0.00
2019-02-27T00:09:14.746Z,0.00
2019-02-27T00:10:14.751Z,0.00
2019-02-27T00:11:14.721Z,0.00
2019-02-27T00:12:17.003Z,0.00
2019-02-27T00:13:14.699Z,0.00
2019-02-27T00:14:14.690Z,0.00
2019-02-27T00:15:14.695Z,0.00
2019-02-27T00:16:14.667Z,0.00
2019-02-27T00:17:15.110Z,0.00
2019-02-27T00:18:14.653Z,0.00
2019-02-27T00:19:14.634Z,0.00
2019-02-27T00:20:14.643Z,0.00
2019-02-27T00:21:14.625Z,0.00
2019-02-27T00:22:14.947Z,0.00
2019-02-27T00:23:14.589Z,0.00
2019-02-27T00:24:14.600Z,0.00
2019-02-27T00:25:14.565Z,0.00
2019-02-27T00:26:14.572Z,0.00
2019-02-27T00:27:15.220Z,0.00
2019-02-27T00:28:14.534Z,0.00
2019-02-27T00:29:14.530Z,0.00
2019-02-27T00:30:14.509Z,0.00
2019-02-27T00:31:14.515Z,0.00
2019-02-27T00:32:15.756Z,0.00
2019-02-27T00:33:14.477Z,0.00
2019-02-27T00:34:14.466Z,0.00
2019-02-27T00:35:14.475Z,0.00
2019-02-27T00:36:14.459Z,0.00
2019-02-27T00:37:18.761Z,0.00
2019-02-27T00:38:15.421Z,0.00
2019-02-27T00:39:14.412Z,0.00
2019-02-27T00:40:14.399Z,0.00
2019-02-27T00:41:14.413Z,0.00
2019-02-27T00:42:14.377Z,0.00
2019-02-27T00:43:14.369Z,0.00
2019-02-27T00:44:14.355Z,0.00
2019-02-27T00:45:14.345Z,0.00
2019-02-27T00:46:14.347Z,0.00
2019-02-27T00:47:14.335Z,0.00
2019-02-27T00:48:14.310Z,0.00
2019-02-27T00:49:14.305Z,0.00
2019-02-27T00:50:14.288Z,0.00
2019-02-27T00:51:14.298Z,0.00
2019-02-27T00:52:18.042Z,0.00
2019-02-27T00:53:14.260Z,0.00
2019-02-27T00:54:14.244Z,0.00
2019-02-27T00:55:14.233Z,0.00
2019-02-27T00:56:14.239Z,0.00
2019-02-27T00:57:15.218Z,0.00
2019-02-27T00:58:14.203Z,0.00
2019-02-27T00:59:14.198Z,0.00
2019-02-27T01:00:14.191Z,0.00
2019-02-27T01:01:14.181Z,0.00
2019-02-27T01:02:14.154Z,0.00
2019-02-27T01:03:14.145Z,0.00
2019-02-27T01:04:14.134Z,0.00
2019-02-27T01:05:14.120Z,0.00
2019-02-27T01:06:14.639Z,0.00
2019-02-27T01:07:14.104Z,0.00
2019-02-27T01:08:14.088Z,0.00
2019-02-27T01:09:14.081Z,0.00
2019-02-27T01:10:14.065Z,0.00
2019-02-27T01:11:18.229Z,0.00
2019-02-27T01:12:14.052Z,0.00
2019-02-27T01:13:14.032Z,0.00
2019-02-27T01:14:14.021Z,0.00
2019-02-27T01:15:14.011Z,0.00
2019-02-27T01:16:17.003Z,0.00
2019-02-27T01:17:13.987Z,0.00
2019-02-27T01:18:13.984Z,0.00
2019-02-27T01:19:13.968Z,0.00
2019-02-27T01:20:13.953Z,0.00
2019-02-27T01:21:13.957Z,0.00
2019-02-27T01:22:13.932Z,0.00
2019-02-27T01:23:13.921Z,0.00
2019-02-27T01:24:14.986Z,0.00
2019-02-27T01:25:13.898Z,0.00
2019-02-27T01:26:13.906Z,0.00
2019-02-27T01:27:13.875Z,0.00
2019-02-27T01:28:13.865Z,0.00
2019-02-27T01:29:15.696Z,0.00
2019-02-27T01:30:13.851Z,0.00
2019-02-27T01:31:13.846Z,0.00
2019-02-27T01:32:13.822Z,0.00
2019-02-27T01:33:13.810Z,0.00
2019-02-27T01:34:13.801Z,0.00
2019-02-27T01:35:17.918Z,0.00
2019-02-27T01:36:13.799Z,0.00
2019-02-27T01:37:13.765Z,0.00
2019-02-27T01:38:13.754Z,0.00
2019-02-27T01:39:13.744Z,0.00
2019-02-27T01:40:17.515Z,0.00
2019-02-27T01:41:14.021Z,0.00
2019-02-27T01:42:13.719Z,0.00
2019-02-27T01:43:13.698Z,0.00
2019-02-27T01:44:14.286Z,0.00
2019-02-27T01:45:13.674Z,0.00
2019-02-27T01:46:13.664Z,0.00
2019-02-27T01:47:13.669Z,0.00
2019-02-27T01:48:13.653Z,0.00
2019-02-27T01:49:15.901Z,0.00
2019-02-27T01:50:13.619Z,0.00
2019-02-27T01:51:13.609Z,0.00
2019-02-27T01:52:13.615Z,0.00
2019-02-27T01:53:13.586Z,0.00
2019-02-27T01:54:15.050Z,0.00
2019-02-27T01:55:13.562Z,0.00
2019-02-27T01:56:13.551Z,0.00
2019-02-27T01:57:13.555Z,0.00
2019-02-27T01:58:13.534Z,0.00
2019-02-27T01:59:14.065Z,0.00
2019-02-27T02:00:13.512Z,0.00
2019-02-27T02:01:13.497Z,0.00
2019-02-27T02:02:13.500Z,0.00
2019-02-27T02:03:14.264Z,0.00
2019-02-27T02:04:13.464Z,0.00
2019-02-27T02:05:13.461Z,0.00
2019-02-27T02:06:13.446Z,0.00
2019-02-27T02:07:13.444Z,0.00
2019-02-27T02:08:13.931Z,0.00
2019-02-27T02:09:13.409Z,0.00
2019-02-27T02:10:13.399Z,0.00
2019-02-27T02:11:13.393Z,0.00
2019-02-27T02:12:13.390Z,0.00
2019-02-27T02:13:15.131Z,0.00
2019-02-27T02:14:13.354Z,0.00
2019-02-27T02:15:13.339Z,0.00
2019-02-27T02:16:13.328Z,0.00
2019-02-27T02:17:13.365Z,0.00
2019-02-27T02:18:13.934Z,0.00
2019-02-27T02:19:13.297Z,0.00
2019-02-27T02:20:13.287Z,0.00
2019-02-27T02:21:13.274Z,0.00
2019-02-27T02:22:14.216Z,0.00
2019-02-27T02:23:14.311Z,0.00
2019-02-27T02:24:13.239Z,0.00
2019-02-27T02:25:13.232Z,0.00
2019-02-27T02:26:13.219Z,0.00
2019-02-27T02:27:13.206Z,0.00
2019-02-27T02:28:14.674Z,0.00
2019-02-27T02:29:13.191Z,0.00
2019-02-27T02:30:13.174Z,0.00
2019-02-27T02:31:13.164Z,0.00
2019-02-27T02:32:17.105Z,0.00
2019-02-27T02:33:13.157Z,0.00
2019-02-27T02:34:13.130Z,0.00
2019-02-27T02:35:15.750Z,0.00
2019-02-27T02:36:13.110Z,0.00
2019-02-27T02:37:13.095Z,0.00
2019-02-27T02:38:13.990Z,0.00
2019-02-27T02:39:17.972Z,0.00
2019-02-27T02:40:14.062Z,0.00
2019-02-27T02:41:13.061Z,0.00
2019-02-27T02:42:13.040Z,0.00
2019-02-27T02:43:13.218Z,0.00
2019-02-27T02:44:13.020Z,0.00
2019-02-27T02:45:13.017Z,0.00
2019-02-27T02:46:12.999Z,0.00
2019-02-27T02:47:12.990Z,0.00
2019-02-27T02:48:12.973Z,0.00
2019-02-27T02:49:12.976Z,0.00
2019-02-27T02:50:17.412Z,0.00
2019-02-27T02:51:13.938Z,0.00
2019-02-27T02:52:12.933Z,0.00
2019-02-27T02:53:12.925Z,0.00
2019-02-27T02:54:12.929Z,0.00
2019-02-27T02:55:13.533Z,0.00
2019-02-27T02:56:12.884Z,0.00
2019-02-27T02:57:12.874Z,0.00
2019-02-27T02:58:12.862Z,0.00
2019-02-27T02:59:12.865Z,0.00
2019-02-27T03:00:12.851Z,0.00
2019-02-27T03:01:15.207Z,0.00
2019-02-27T03:02:12.816Z,0.00
2019-02-27T03:03:12.807Z,0.00
2019-02-27T03:04:13.626Z,0.00
2019-02-27T03:05:12.790Z,0.00
2019-02-27T03:06:12.779Z,0.00
2019-02-27T03:07:12.762Z,0.00
2019-02-27T03:08:12.754Z,0.00
2019-02-27T03:09:12.771Z,0.00
2019-02-27T03:10:12.727Z,0.00
2019-02-27T03:11:18.118Z,0.00
2019-02-27T03:12:13.720Z,0.00
2019-02-27T03:13:12.696Z,0.00
2019-02-27T03:14:16.884Z,0.00
2019-02-27T03:15:12.688Z,0.00
2019-02-27T03:16:12.659Z,0.00
2019-02-27T03:17:17.946Z,0.00
2019-02-27T03:18:13.656Z,0.00
2019-02-27T03:19:12.629Z,0.00
2019-02-27T03:20:16.775Z,0.00
2019-02-27T03:21:12.607Z,0.00
2019-02-27T03:22:12.593Z,0.00
2019-02-27T03:23:15.580Z,0.00
2019-02-27T03:24:12.578Z,0.00
2019-02-27T03:25:12.576Z,0.00
2019-02-27T03:26:16.554Z,0.00
2019-02-27T03:27:13.536Z,0.00
2019-02-27T03:28:12.527Z,0.00
2019-02-27T03:29:15.814Z,0.00
2019-02-27T03:30:12.522Z,0.00
2019-02-27T03:31:18.076Z,0.00
2019-02-27T03:32:13.482Z,0.00
2019-02-27T03:33:23.363Z,0.00
2019-02-27T03:34:13.459Z,0.00
2019-02-27T03:35:12.489Z,0.00
2019-02-27T03:36:12.443Z,0.00
2019-02-27T03:37:13.454Z,0.00
2019-02-27T03:38:12.417Z,0.00
2019-02-27T03:39:12.404Z,0.00
2019-02-27T03:40:12.410Z,0.00
2019-02-27T03:41:12.389Z,0.00
2019-02-27T03:42:12.371Z,0.00
2019-02-27T03:43:12.359Z,0.00
2019-02-27T03:44:12.349Z,0.00
2019-02-27T03:45:12.360Z,0.00
2019-02-27T03:46:12.327Z,0.00
2019-02-27T03:47:15.675Z,0.00
2019-02-27T03:48:12.304Z,0.00
2019-02-27T03:49:12.298Z,0.00
2019-02-27T03:50:14.922Z,0.00
2019-02-27T03:51:12.270Z,0.00
2019-02-27T03:52:12.276Z,0.00
2019-02-27T03:53:12.256Z,0.00
2019-02-27T03:54:12.238Z,0.00
2019-02-27T03:55:12.242Z,0.00
2019-02-27T03:56:12.216Z,0.00
2019-02-27T03:57:12.202Z,0.00
2019-02-27T03:58:12.193Z,0.00
2019-02-27T03:59:12.188Z,0.00
2019-02-27T04:00:18.133Z,0.00
2019-02-27T04:01:13.157Z,0.00
2019-02-27T04:02:12.163Z,0.00
2019-02-27T04:03:16.938Z,0.00
2019-02-27T04:04:13.126Z,0.00
2019-02-27T04:05:12.128Z,0.00
2019-02-27T04:06:12.118Z,0.00
2019-02-27T04:07:12.093Z,0.00
2019-02-27T04:08:12.081Z,0.00
2019-02-27T04:09:12.071Z,0.00
2019-02-27T04:10:12.067Z,0.00
2019-02-27T04:11:12.077Z,0.00
2019-02-27T04:12:16.140Z,0.00
2019-02-27T04:13:13.023Z,0.00
2019-02-27T04:14:12.015Z,0.00
2019-02-27T04:15:17.625Z,0.00
2019-02-27T04:16:13.011Z,0.00
2019-02-27T04:17:11.995Z,0.00
2019-02-27T04:18:11.985Z,0.00
2019-02-27T04:19:11.958Z,0.00
2019-02-27T04:20:15.479Z,0.00
2019-02-27T04:21:11.952Z,0.00
2019-02-27T04:22:11.924Z,0.00
2019-02-27T04:23:12.846Z,0.00
2019-02-27T04:24:11.902Z,0.00
2019-02-27T04:25:11.890Z,0.00
2019-02-27T04:26:11.895Z,0.00
2019-02-27T04:27:11.880Z,0.00
2019-02-27T04:28:11.857Z,0.00
2019-02-27T04:29:11.864Z,0.00
2019-02-27T04:30:14.781Z,0.00
2019-02-27T04:31:11.838Z,0.00
2019-02-27T04:32:12.420Z,0.00
2019-02-27T04:33:11.804Z,0.00
2019-02-27T04:34:11.798Z,0.00
2019-02-27T04:35:11.785Z,0.00
2019-02-27T04:36:12.821Z,0.00
2019-02-27T04:37:11.759Z,0.00
2019-02-27T04:38:11.746Z,0.00
2019-02-27T04:39:11.734Z,0.00
2019-02-27T04:40:11.779Z,0.00
2019-02-27T04:41:11.767Z,0.00
2019-02-27T04:42:11.702Z,0.00
2019-02-27T04:43:11.690Z,0.00
2019-02-27T04:44:11.679Z,0.00
2019-02-27T04:45:12.354Z,0.00
2019-02-27T04:46:11.658Z,0.00
2019-02-27T04:47:11.671Z,0.00
2019-02-27T04:48:11.634Z,0.00
2019-02-27T04:49:11.624Z,0.00
2019-02-27T04:50:11.923Z,0.00
2019-02-27T04:51:11.601Z,0.00
2019-02-27T04:52:11.604Z,0.00
2019-02-27T04:53:11.583Z,0.00
2019-02-27T04:54:11.567Z,0.00
2019-02-27T04:55:13.125Z,0.00
2019-02-27T04:56:11.546Z,0.00
2019-02-27T04:57:11.548Z,0.00
2019-02-27T04:58:11.527Z,0.00
2019-02-27T04:59:11.520Z,0.00
2019-02-27T05:00:11.501Z,0.00
2019-02-27T05:01:11.508Z,0.00
2019-02-27T05:02:12.139Z,0.00
2019-02-27T05:03:11.470Z,0.00
2019-02-27T05:04:11.458Z,0.00
2019-02-27T05:05:11.457Z,0.00
2019-02-27T05:06:12.067Z,0.00
2019-02-27T05:07:11.437Z,0.00
2019-02-27T05:08:11.412Z,0.00
2019-02-27T05:09:12.752Z,0.00
2019-02-27T05:10:11.389Z,0.00
2019-02-27T05:11:13.996Z,0.00
2019-02-27T05:12:11.384Z,0.00
2019-02-27T05:13:11.360Z,0.00
2019-02-27T05:14:11.349Z,0.00
2019-02-27T05:15:11.334Z,0.00
2019-02-27T05:16:13.932Z,0.00
2019-02-27T05:17:11.336Z,0.00
2019-02-27T05:18:11.299Z,0.00
2019-02-27T05:19:11.311Z,0.00
2019-02-27T05:20:12.475Z,0.00
2019-02-27T05:21:11.272Z,0.00
2019-02-27T05:22:11.270Z,0.00
2019-02-27T05:23:11.252Z,0.00
2019-02-27T05:24:11.234Z,0.00
2019-02-27T05:25:12.121Z,0.00
2019-02-27T05:26:11.212Z,0.00
2019-02-27T05:27:11.218Z,0.00
2019-02-27T05:28:11.188Z,0.00
2019-02-27T05:29:11.184Z,0.00
2019-02-27T05:30:12.323Z,0.00
2019-02-27T05:31:11.156Z,0.00
2019-02-27T05:32:11.159Z,0.00
2019-02-27T05:33:11.133Z,0.00
2019-02-27T05:34:13.579Z,0.00
2019-02-27T05:35:11.115Z,0.00
2019-02-27T05:36:11.107Z,0.00
2019-02-27T05:37:11.105Z,0.00
2019-02-27T05:38:11.078Z,0.00
2019-02-27T05:39:11.066Z,0.00
2019-02-27T05:40:11.055Z,0.00
2019-02-27T05:41:11.045Z,0.00
2019-02-27T05:42:13.080Z,4.00
2019-02-27T05:43:13.421Z,4.00
2019-02-27T05:44:11.012Z,0.00
2019-02-27T05:45:11.000Z,4.00
2019-02-27T05:46:10.988Z,4.00
2019-02-27T05:47:11.858Z,4.00
2019-02-27T05:48:10.972Z,4.00
2019-02-27T05:49:10.958Z,4.00
2019-02-27T05:50:10.945Z,8.00
2019-02-27T05:51:10.935Z,8.00
2019-02-27T05:52:11.838Z,8.00
2019-02-27T05:53:10.924Z,12.00
2019-02-27T05:54:10.906Z,16.00
2019-02-27T05:55:10.898Z,16.00
2019-02-27T05:56:15.480Z,20.00
2019-02-27T05:57:11.863Z,24.00
2019-02-27T05:58:10.871Z,28.00
2019-02-27T05:59:10.845Z,28.00
2019-02-27T06:00:10.850Z,36.00
2019-02-27T06:01:10.822Z,40.00
2019-02-27T06:02:11.464Z,44.00
2019-02-27T06:03:10.822Z,48.00
2019-02-27T06:04:10.787Z,56.00
2019-02-27T06:05:10.776Z,64.00
2019-02-27T06:06:11.903Z,68.00
2019-02-27T06:07:10.753Z,76.00
2019-02-27T06:08:10.761Z,88.00
2019-02-27T06:09:10.981Z,96.00
2019-02-27T06:10:10.741Z,104.00
2019-02-27T06:11:10.726Z,112.00
2019-02-27T06:12:10.697Z,120.00
2019-02-27T06:13:14.051Z,128.00
2019-02-27T06:14:10.676Z,140.00
2019-02-27T06:15:10.668Z,148.00
2019-02-27T06:16:10.652Z,160.00
2019-02-27T06:17:12.832Z,168.00
2019-02-27T06:18:10.647Z,180.00
2019-02-27T06:19:10.624Z,192.00
2019-02-27T06:20:10.608Z,200.00
2019-02-27T06:21:10.616Z,208.00
2019-02-27T06:22:10.588Z,220.00
2019-02-27T06:23:10.603Z,232.00
2019-02-27T06:24:12.470Z,240.00
2019-02-27T06:25:10.560Z,248.00
2019-02-27T06:26:10.543Z,260.00
2019-02-27T06:27:10.533Z,268.00
2019-02-27T06:28:10.537Z,280.00
2019-02-27T06:29:10.509Z,284.00
2019-02-27T06:30:10.507Z,296.00
2019-02-27T06:31:10.486Z,304.00
2019-02-27T06:32:12.401Z,316.00
2019-02-27T06:33:11.801Z,324.00
2019-02-27T06:34:10.452Z,332.00
2019-02-27T06:35:10.442Z,340.00
2019-02-27T06:36:10.450Z,348.00
2019-02-27T06:37:10.419Z,356.00
2019-02-27T06:38:10.423Z,364.00
2019-02-27T06:39:10.399Z,372.00
2019-02-27T06:40:10.385Z,380.00
2019-02-27T06:41:10.375Z,388.00
2019-02-27T06:42:10.391Z,396.00
2019-02-27T06:43:10.376Z,404.00
2019-02-27T06:44:10.355Z,412.00
2019-02-27T06:45:12.676Z,416.00
2019-02-27T06:46:10.319Z,424.00
2019-02-27T06:47:10.307Z,428.00
2019-02-27T06:48:10.423Z,432.00
2019-02-27T06:49:10.289Z,440.00
2019-02-27T06:50:10.275Z,444.00
2019-02-27T06:51:10.263Z,448.00
2019-02-27T06:52:10.251Z,456.00
2019-02-27T06:53:10.257Z,460.00
2019-02-27T06:54:10.234Z,468.00
2019-02-27T06:55:10.227Z,472.00
2019-02-27T06:56:10.207Z,480.00
2019-02-27T06:57:10.195Z,488.00
2019-02-27T06:58:14.324Z,488.00
2019-02-27T06:59:11.172Z,492.00
2019-02-27T07:00:10.162Z,496.00
2019-02-27T07:01:13.119Z,500.00
2019-02-27T07:02:10.140Z,504.00
2019-02-27T07:03:10.146Z,504.00
2019-02-27T07:04:10.125Z,508.00
2019-02-27T07:05:13.318Z,512.00
2019-02-27T07:06:10.102Z,516.00
2019-02-27T07:07:10.090Z,520.00
2019-02-27T07:08:10.101Z,524.00
2019-02-27T07:09:11.641Z,528.00
2019-02-27T07:10:10.050Z,532.00
2019-02-27T07:11:11.029Z,536.00
2019-02-27T07:12:10.032Z,544.00
2019-02-27T07:13:10.032Z,552.00
2019-02-27T07:14:10.030Z,556.00
2019-02-27T07:15:10.264Z,560.00
2019-02-27T07:16:09.992Z,568.00
2019-02-27T07:17:09.972Z,572.00
2019-02-27T07:18:11.888Z,580.00
2019-02-27T07:19:09.982Z,584.00
2019-02-27T07:20:09.939Z,584.00
2019-02-27T07:21:09.927Z,592.00
2019-02-27T07:22:12.541Z,596.00
2019-02-27T07:23:09.908Z,600.00
2019-02-27T07:24:09.909Z,604.00
2019-02-27T07:25:09.888Z,600.00
2019-02-27T07:26:09.872Z,608.00
2019-02-27T07:27:09.861Z,604.00
2019-02-27T07:28:09.858Z,608.00
2019-02-27T07:29:09.852Z,608.00
2019-02-27T07:30:09.825Z,616.00
2019-02-27T07:31:09.826Z,620.00
2019-02-27T07:32:09.804Z,624.00
2019-02-27T07:33:09.793Z,628.00
2019-02-27T07:34:14.226Z,632.00
2019-02-27T07:35:10.769Z,640.00
2019-02-27T07:36:09.759Z,640.00
2019-02-27T07:37:10.462Z,644.00
2019-02-27T07:38:09.736Z,648.00
2019-02-27T07:39:09.741Z,656.00
2019-02-27T07:40:09.714Z,660.00
2019-02-27T07:41:09.702Z,668.00
2019-02-27T07:42:09.692Z,672.00
2019-02-27T07:43:09.687Z,672.00
2019-02-27T07:44:09.684Z,672.00
2019-02-27T07:45:10.739Z,680.00
2019-02-27T07:46:09.650Z,680.00
2019-02-27T07:47:09.633Z,680.00
2019-02-27T07:48:09.624Z,684.00
2019-02-27T07:49:09.638Z,688.00
2019-02-27T07:50:09.602Z,688.00
2019-02-27T07:51:09.589Z,692.00
2019-02-27T07:52:09.586Z,696.00
2019-02-27T07:53:09.584Z,700.00
2019-02-27T07:54:09.571Z,700.00
2019-02-27T07:55:20.992Z,700.00
2019-02-27T07:56:10.531Z,708.00
2019-02-27T07:57:09.563Z,708.00
2019-02-27T07:58:09.513Z,712.00
2019-02-27T07:59:09.517Z,716.00
2019-02-27T08:00:09.487Z,716.00
2019-02-27T08:01:09.490Z,724.00
2019-02-27T08:02:09.467Z,724.00
2019-02-27T08:03:12.169Z,732.00
2019-02-27T08:04:09.458Z,732.00
2019-02-27T08:05:09.436Z,736.00
2019-02-27T08:06:09.425Z,736.00
2019-02-27T08:07:10.092Z,736.00
2019-02-27T08:08:09.398Z,740.00
2019-02-27T08:09:09.405Z,744.00
2019-02-27T08:10:10.648Z,744.00
2019-02-27T08:11:13.148Z,744.00
2019-02-27T08:12:09.358Z,740.00
2019-02-27T08:13:09.356Z,748.00
2019-02-27T08:14:09.370Z,748.00
2019-02-27T08:15:10.763Z,748.00
2019-02-27T08:16:09.310Z,752.00
2019-02-27T08:17:17.305Z,756.00
2019-02-27T08:18:10.372Z,756.00
2019-02-27T08:19:11.620Z,756.00
2019-02-27T08:20:09.266Z,760.00
2019-02-27T08:21:09.255Z,760.00
2019-02-27T08:22:09.244Z,764.00
2019-02-27T08:23:09.231Z,772.00
2019-02-27T08:24:09.236Z,768.00
2019-02-27T08:25:09.224Z,772.00
2019-02-27T08:26:09.201Z,772.00
2019-02-27T08:27:09.696Z,776.00
2019-02-27T08:28:09.178Z,780.00
2019-02-27T08:29:09.199Z,780.00
2019-02-27T08:30:09.154Z,780.00
2019-02-27T08:31:09.155Z,784.00
2019-02-27T08:32:09.132Z,784.00
2019-02-27T08:33:09.131Z,784.00
2019-02-27T08:34:09.110Z,788.00
2019-02-27T08:35:09.120Z,792.00
2019-02-27T08:36:09.087Z,792.00
2019-02-27T08:37:09.083Z,796.00
2019-02-27T08:38:09.067Z,800.00
2019-02-27T08:39:09.054Z,804.00
2019-02-27T08:40:09.057Z,804.00
2019-02-27T08:41:09.056Z,804.00
2019-02-27T08:42:09.021Z,812.00
2019-02-27T08:43:10.277Z,816.00
2019-02-27T08:44:09.000Z,820.00
2019-02-27T08:45:09.001Z,820.00
2019-02-27T08:46:08.979Z,824.00
2019-02-27T08:47:10.226Z,828.00
2019-02-27T08:48:08.954Z,828.00
2019-02-27T08:49:08.998Z,832.00
2019-02-27T08:50:08.946Z,836.00
2019-02-27T08:51:09.066Z,840.00
2019-02-27T08:52:08.913Z,844.00
2019-02-27T08:53:08.898Z,844.00
2019-02-27T08:54:08.887Z,848.00
2019-02-27T08:55:18.419Z,852.00
2019-02-27T08:56:12.162Z,852.00
2019-02-27T08:57:08.854Z,852.00
2019-02-27T08:58:08.845Z,856.00
2019-02-27T08:59:08.833Z,860.00
2019-02-27T09:00:08.842Z,860.00
2019-02-27T09:01:08.815Z,860.00
2019-02-27T09:02:08.798Z,864.00
2019-02-27T09:03:08.788Z,864.00
2019-02-27T09:04:11.176Z,864.00
2019-02-27T09:05:08.780Z,872.00
2019-02-27T09:06:08.753Z,872.00
2019-02-27T09:07:08.749Z,872.00
2019-02-27T09:08:10.147Z,876.00
2019-02-27T09:09:08.726Z,880.00
2019-02-27T09:10:08.725Z,880.00
2019-02-27T09:11:08.699Z,880.00
2019-02-27T09:12:13.143Z,884.00
2019-02-27T09:13:09.692Z,888.00
2019-02-27T09:14:08.667Z,888.00
2019-02-27T09:15:08.667Z,892.00
2019-02-27T09:16:08.642Z,896.00
2019-02-27T09:17:08.636Z,896.00
2019-02-27T09:18:08.620Z,900.00
2019-02-27T09:19:09.491Z,900.00
2019-02-27T09:20:08.615Z,904.00
2019-02-27T09:21:08.587Z,904.00
2019-02-27T09:22:08.581Z,912.00
2019-02-27T09:23:08.564Z,912.00
2019-02-27T09:24:08.555Z,912.00
2019-02-27T09:25:08.567Z,920.00
2019-02-27T09:26:08.535Z,920.00
2019-02-27T09:27:08.522Z,924.00
2019-02-27T09:28:09.324Z,924.00
2019-02-27T09:29:08.498Z,928.00
2019-02-27T09:30:08.501Z,928.00
2019-02-27T09:31:08.481Z,932.00
2019-02-27T09:32:11.400Z,936.00
2019-02-27T09:33:08.454Z,940.00
2019-02-27T09:34:08.465Z,944.00
2019-02-27T09:35:08.446Z,944.00
2019-02-27T09:36:10.358Z,948.00
2019-02-27T09:37:08.421Z,948.00
2019-02-27T09:38:08.752Z,952.00
2019-02-27T09:39:08.386Z,956.00
2019-02-27T09:40:08.395Z,960.00
2019-02-27T09:41:12.202Z,964.00
2019-02-27T09:42:08.353Z,964.00
2019-02-27T09:43:08.351Z,964.00
2019-02-27T09:44:08.336Z,968.00
2019-02-27T09:45:11.128Z,972.00
2019-02-27T09:46:08.309Z,976.00
2019-02-27T09:47:08.297Z,976.00
2019-02-27T09:48:08.288Z,980.00
2019-02-27T09:49:08.287Z,984.00
2019-02-27T09:50:08.300Z,984.00
2019-02-27T09:51:08.252Z,988.00
2019-02-27T09:52:08.241Z,992.00
2019-02-27T09:53:08.235Z,992.00
2019-02-27T09:54:08.339Z,996.00
2019-02-27T09:55:08.217Z,1004.00
2019-02-27T09:56:08.210Z,1004.00
2019-02-27T09:57:08.188Z,1008.00
2019-02-27T09:58:10.987Z,1012.00
2019-02-27T09:59:08.170Z,1016.00
2019-02-27T10:00:08.154Z,1020.00
2019-02-27T10:01:08.168Z,1024.00
2019-02-27T10:02:09.267Z,1028.00
2019-02-27T10:03:08.126Z,1036.00
2019-02-27T10:04:09.620Z,1040.00
2019-02-27T10:05:08.098Z,1044.00
2019-02-27T10:06:08.714Z,1048.00
2019-02-27T10:07:08.090Z,1052.00
2019-02-27T10:08:08.064Z,1056.00
2019-02-27T10:09:08.053Z,1064.00
2019-02-27T10:10:10.210Z,1064.00
2019-02-27T10:11:08.049Z,1068.00
2019-02-27T10:12:08.021Z,1076.00
2019-02-27T10:13:08.027Z,1076.00
2019-02-27T10:14:07.999Z,1080.00
2019-02-27T10:15:07.986Z,1084.00
2019-02-27T10:16:07.991Z,1088.00
2019-02-27T10:17:09.166Z,1096.00
2019-02-27T10:18:07.957Z,1100.00
2019-02-27T10:19:07.950Z,1100.00
2019-02-27T10:20:07.932Z,1108.00
2019-02-27T10:21:09.347Z,1108.00
2019-02-27T10:22:07.911Z,1112.00
2019-02-27T10:23:07.902Z,1116.00
2019-02-27T10:24:07.887Z,1124.00
2019-02-27T10:25:08.610Z,1128.00
2019-02-27T10:26:07.884Z,1132.00
2019-02-27T10:27:07.853Z,1140.00
2019-02-27T10:28:07.845Z,1148.00
2019-02-27T10:29:07.832Z,1148.00
2019-02-27T10:30:11.445Z,1148.00
2019-02-27T10:31:07.837Z,1152.00
2019-02-27T10:32:07.797Z,1152.00
2019-02-27T10:33:07.791Z,1156.00
2019-02-27T10:34:07.775Z,1164.00
2019-02-27T10:35:07.767Z,1172.00
2019-02-27T10:36:07.768Z,1180.00
2019-02-27T10:37:07.901Z,1184.00
2019-02-27T10:38:07.730Z,1192.00
2019-02-27T10:39:07.720Z,1192.00
2019-02-27T10:40:08.769Z,1196.00
2019-02-27T10:41:07.700Z,1200.00
2019-02-27T10:42:07.703Z,1204.00
2019-02-27T10:43:07.689Z,1212.00
2019-02-27T10:44:07.666Z,1212.00
2019-02-27T10:45:10.061Z,1216.00
2019-02-27T10:46:07.644Z,1224.00
2019-02-27T10:47:07.646Z,1228.00
2019-02-27T10:48:07.621Z,1236.00
2019-02-27T10:49:07.617Z,1244.00
2019-02-27T10:50:07.597Z,1252.00
2019-02-27T10:51:09.441Z,1260.00
2019-02-27T10:52:07.605Z,1264.00
2019-02-27T10:53:07.568Z,1272.00
2019-02-27T10:54:07.560Z,1276.00
2019-02-27T10:55:07.553Z,1280.00
2019-02-27T10:56:07.534Z,1284.00
2019-02-27T10:57:07.534Z,1292.00
2019-02-27T10:58:07.819Z,1296.00
2019-02-27T10:59:07.497Z,1308.00
2019-02-27T11:00:07.490Z,1312.00
2019-02-27T11:01:07.482Z,1320.00
2019-02-27T11:02:09.792Z,1328.00
2019-02-27T11:03:07.454Z,1336.00
2019-02-27T11:04:07.446Z,1348.00
2019-02-27T11:05:07.435Z,1352.00
2019-02-27T11:06:07.420Z,1360.00
2019-02-27T11:07:07.442Z,1368.00
2019-02-27T11:08:07.398Z,1376.00
2019-02-27T11:09:07.386Z,1388.00
2019-02-27T11:10:07.375Z,1396.00
2019-02-27T11:11:08.693Z,1412.00
2019-02-27T11:12:07.370Z,1424.00
2019-02-27T11:13:07.346Z,1440.00
2019-02-27T11:14:07.333Z,1456.00
2019-02-27T11:15:08.195Z,1476.00
2019-02-27T11:16:07.313Z,1512.00
2019-02-27T11:17:07.340Z,1580.00
2019-02-27T11:18:07.290Z,1676.00
2019-02-27T11:19:07.284Z,1784.00
2019-02-27T11:20:07.266Z,1888.00
2019-02-27T11:21:07.255Z,1996.00
2019-02-27T11:22:07.262Z,2116.00
2019-02-27T11:23:07.799Z,2232.00
2019-02-27T11:24:07.221Z,2352.00
2019-02-27T11:25:07.217Z,2480.00
2019-02-27T11:26:07.199Z,2616.00
2019-02-27T11:27:07.203Z,2752.00
2019-02-27T11:28:07.185Z,2896.00
2019-02-27T11:29:07.172Z,3036.00
2019-02-27T11:30:07.157Z,3180.00
2019-02-27T11:31:08.360Z,3324.00
2019-02-27T11:32:07.163Z,3484.00
2019-02-27T11:33:07.124Z,3636.00
2019-02-27T11:34:07.855Z,3792.00
2019-02-27T11:35:07.103Z,3936.00
2019-02-27T11:36:07.110Z,4084.00
2019-02-27T11:37:07.087Z,4220.00
2019-02-27T11:38:07.084Z,4348.00
2019-02-27T11:39:07.061Z,4468.00
2019-02-27T11:40:07.848Z,4568.00
2019-02-27T11:41:07.037Z,4648.00
2019-02-27T11:42:07.026Z,4724.00
2019-02-27T11:43:07.648Z,4816.00
2019-02-27T11:44:07.004Z,4920.00
2019-02-27T11:45:06.992Z,5024.00
2019-02-27T11:46:06.982Z,5132.00
2019-02-27T11:47:10.971Z,5240.00
2019-02-27T11:48:06.976Z,5368.00
2019-02-27T11:49:06.951Z,5500.00
2019-02-27T11:50:06.943Z,5640.00
2019-02-27T11:51:06.927Z,5796.00
2019-02-27T11:52:06.915Z,5976.00
2019-02-27T11:53:06.922Z,6176.00
2019-02-27T11:54:08.252Z,6440.00
2019-02-27T11:55:06.888Z,6768.00
2019-02-27T11:56:06.870Z,7408.00
2019-02-27T11:57:06.860Z,16320.00
2019-02-27T11:58:06.863Z,30400.00
2019-02-27T11:59:06.847Z,32256.00
2019-02-27T12:00:06.825Z,31456.00
2019-02-27T12:01:06.821Z,32192.00
2019-02-27T12:02:06.810Z,34304.00
2019-02-27T12:03:08.558Z,37312.00
2019-02-27T12:04:06.782Z,38880.00
2019-02-27T12:05:06.770Z,39968.00
2019-02-27T12:06:07.716Z,40224.00
2019-02-27T12:07:06.752Z,39200.00
2019-02-27T12:08:06.753Z,37888.00
2019-02-27T12:09:06.726Z,38272.00
2019-02-27T12:10:08.907Z,39744.00
2019-02-27T12:11:06.706Z,40256.00
2019-02-27T12:12:06.695Z,40640.00
2019-02-27T12:13:06.707Z,40960.00
2019-02-27T12:14:09.103Z,40576.00
2019-02-27T12:15:06.744Z,40416.00
2019-02-27T12:16:06.651Z,40544.00
2019-02-27T12:17:06.638Z,41504.00
2019-02-27T12:18:06.641Z,41760.00
2019-02-27T12:19:08.728Z,42144.00
2019-02-27T12:20:06.606Z,42816.00
2019-02-27T12:21:06.596Z,43488.00
2019-02-27T12:22:06.582Z,43840.00
2019-02-27T12:23:07.472Z,44032.00
2019-02-27T12:24:06.561Z,43968.00
2019-02-27T12:25:06.556Z,43200.00
2019-02-27T12:26:06.537Z,41088.00
2019-02-27T12:27:07.280Z,40544.00
2019-02-27T12:28:06.535Z,41824.00
2019-02-27T12:29:06.506Z,43872.00
2019-02-27T12:30:06.496Z,45376.00
2019-02-27T12:31:08.086Z,46784.00
2019-02-27T12:32:06.475Z,46240.00
2019-02-27T12:33:06.477Z,45184.00
2019-02-27T12:34:06.453Z,44288.00
2019-02-27T12:35:08.301Z,45216.00
2019-02-27T12:36:06.429Z,45376.00
2019-02-27T12:37:15.135Z,44416.00
2019-02-27T12:38:08.445Z,42720.00
2019-02-27T12:39:06.398Z,42272.00
2019-02-27T12:40:06.388Z,43072.00
2019-02-27T12:41:06.377Z,44288.00
2019-02-27T12:42:07.103Z,44576.00
2019-02-27T12:43:06.394Z,43488.00
2019-02-27T12:44:06.345Z,41824.00